sensor_id;sensor_type;location;lat;lon;timestamp;P1;durP1;ratioP1;P2;durP2;ratioP2
21426;SDS011;10874;49.452;11.050;2024-02-26T00:00:37;5.33;;;3.57;;
21426;SDS011;10874;49.452;11.050;2024-02-26T00:03:04;4.03;;;3.10;;
21426;SDS011;10874;49.452;11.050;2024-02-26T00:05:31;4.53;;;3.30;;
21426;SDS011;10874;49.452;11.050;2024-02-26T00:07:58;3.50;;;2.83;;
21426;SDS011;10874;49.452;11.050;2024-02-26T00:10:29;3.23;;;2.80;;
21426;SDS011;10874;49.452;11.050;2024-02-26T00:12:55;3.90;;;3.17;;
21426;SDS011;10874;49.452;11.050;2024-02-26T00:15:22;4.33;;;2.93;;
21426;SDS011;10874;49.452;11.050;2024-02-26T00:17:49;3.23;;;2.93;;
21426;SDS011;10874;49.452;11.050;2024-02-26T00:20:17;4.77;;;3.30;;
21426;SDS011;10874;49.452;11.050;2024-02-26T00:22:44;3.37;;;3.07;;
21426;SDS011;10874;49.452;11.050;2024-02-26T00:25:11;3.87;;;3.20;;
21426;SDS011;10874;49.452;11.050;2024-02-26T00:27:39;3.77;;;3.00;;
21426;SDS011;10874;49.452;11.050;2024-02-26T00:30:08;4.63;;;3.30;;
21426;SDS011;10874;49.452;11.050;2024-02-26T00:32:35;3.93;;;3.20;;
21426;SDS011;10874;49.452;11.050;2024-02-26T00:35:02;4.07;;;3.40;;
21426;SDS011;10874;49.452;11.050;2024-02-26T00:37:29;4.30;;;3.13;;
21426;SDS011;10874;49.452;11.050;2024-02-26T00:39:56;4.57;;;3.60;;
21426;SDS011;10874;49.452;11.050;2024-02-26T00:42:22;4.10;;;3.57;;
21426;SDS011;10874;49.452;11.050;2024-02-26T00:44:49;3.87;;;3.20;;
21426;SDS011;10874;49.452;11.050;2024-02-26T00:47:16;4.93;;;3.37;;
21426;SDS011;10874;49.452;11.050;2024-02-26T00:49:43;4.17;;;3.50;;
21426;SDS011;10874;49.452;11.050;2024-02-26T00:52:10;5.23;;;3.90;;
21426;SDS011;10874;49.452;11.050;2024-02-26T00:54:37;4.03;;;3.60;;
21426;SDS011;10874;49.452;11.050;2024-02-26T00:57:03;7.07;;;3.83;;
21426;SDS011;10874;49.452;11.050;2024-02-26T00:59:30;4.93;;;3.90;;
21426;SDS011;10874;49.452;11.050;2024-02-26T01:01:57;5.33;;;3.77;;
21426;SDS011;10874;49.452;11.050;2024-02-26T01:04:25;5.40;;;4.33;;
21426;SDS011;10874;49.452;11.050;2024-02-26T01:06:52;5.93;;;4.57;;
21426;SDS011;10874;49.452;11.050;2024-02-26T01:09:19;7.33;;;5.03;;
21426;SDS011;10874;49.452;11.050;2024-02-26T01:11:46;7.07;;;4.40;;
21426;SDS011;10874;49.452;11.050;2024-02-26T01:14:13;6.63;;;4.53;;
21426;SDS011;10874;49.452;11.050;2024-02-26T01:16:41;6.40;;;5.00;;
21426;SDS011;10874;49.452;11.050;2024-02-26T01:19:08;6.20;;;4.87;;
21426;SDS011;10874;49.452;11.050;2024-02-26T01:21:35;6.50;;;4.77;;
21426;SDS011;10874;49.452;11.050;2024-02-26T01:24:02;6.87;;;5.07;;
21426;SDS011;10874;49.452;11.050;2024-02-26T01:26:29;7.70;;;5.37;;
21426;SDS011;10874;49.452;11.050;2024-02-26T01:28:55;7.63;;;5.30;;
21426;SDS011;10874;49.452;11.050;2024-02-26T01:31:22;8.30;;;5.20;;
21426;SDS011;10874;49.452;11.050;2024-02-26T01:33:49;9.17;;;5.60;;
21426;SDS011;10874;49.452;11.050;2024-02-26T01:36:16;6.87;;;5.33;;
21426;SDS011;10874;49.452;11.050;2024-02-26T01:38:43;7.43;;;5.10;;
21426;SDS011;10874;49.452;11.050;2024-02-26T01:41:10;6.47;;;5.13;;
21426;SDS011;10874;49.452;11.050;2024-02-26T01:43:37;7.80;;;5.47;;
21426;SDS011;10874;49.452;11.050;2024-02-26T01:46:03;8.07;;;5.40;;
21426;SDS011;10874;49.452;11.050;2024-02-26T01:48:30;6.73;;;5.40;;
21426;SDS011;10874;49.452;11.050;2024-02-26T01:50:57;6.50;;;5.00;;
21426;SDS011;10874;49.452;11.050;2024-02-26T01:53:24;6.10;;;5.07;;
21426;SDS011;10874;49.452;11.050;2024-02-26T01:55:51;8.70;;;5.67;;
21426;SDS011;10874;49.452;11.050;2024-02-26T01:58:18;9.00;;;5.77;;
21426;SDS011;10874;49.452;11.050;2024-02-26T02:00:45;6.93;;;5.57;;
21426;SDS011;10874;49.452;11.050;2024-02-26T02:03:12;9.10;;;6.20;;
21426;SDS011;10874;49.452;11.050;2024-02-26T02:05:38;8.93;;;6.30;;
21426;SDS011;10874;49.452;11.050;2024-02-26T02:08:10;9.27;;;6.03;;
21426;SDS011;10874;49.452;11.050;2024-02-26T02:10:38;8.17;;;6.87;;
21426;SDS011;10874;49.452;11.050;2024-02-26T02:13:05;8.53;;;6.33;;
21426;SDS011;10874;49.452;11.050;2024-02-26T02:15:32;9.77;;;7.03;;
21426;SDS011;10874;49.452;11.050;2024-02-26T02:17:58;10.20;;;6.80;;
21426;SDS011;10874;49.452;11.050;2024-02-26T02:20:26;10.37;;;6.07;;
21426;SDS011;10874;49.452;11.050;2024-02-26T02:22:57;9.87;;;6.43;;
21426;SDS011;10874;49.452;11.050;2024-02-26T02:25:24;9.53;;;6.60;;
21426;SDS011;10874;49.452;11.050;2024-02-26T02:27:52;9.60;;;6.43;;
21426;SDS011;10874;49.452;11.050;2024-02-26T02:30:20;10.67;;;7.43;;
21426;SDS011;10874;49.452;11.050;2024-02-26T02:32:47;10.23;;;7.17;;
21426;SDS011;10874;49.452;11.050;2024-02-26T02:35:15;9.20;;;7.03;;
21426;SDS011;10874;49.452;11.050;2024-02-26T02:37:42;11.10;;;6.67;;
21426;SDS011;10874;49.452;11.050;2024-02-26T02:40:08;10.20;;;6.80;;
21426;SDS011;10874;49.452;11.050;2024-02-26T02:42:35;10.73;;;6.77;;
21426;SDS011;10874;49.452;11.050;2024-02-26T02:45:02;9.90;;;6.50;;
21426;SDS011;10874;49.452;11.050;2024-02-26T02:47:29;8.60;;;6.60;;
21426;SDS011;10874;49.452;11.050;2024-02-26T02:49:56;9.33;;;6.67;;
21426;SDS011;10874;49.452;11.050;2024-02-26T02:52:22;8.60;;;6.17;;
21426;SDS011;10874;49.452;11.050;2024-02-26T02:54:49;9.73;;;6.80;;
21426;SDS011;10874;49.452;11.050;2024-02-26T02:57:16;10.83;;;6.50;;
21426;SDS011;10874;49.452;11.050;2024-02-26T02:59:43;9.87;;;6.60;;
21426;SDS011;10874;49.452;11.050;2024-02-26T03:02:10;8.80;;;6.30;;
21426;SDS011;10874;49.452;11.050;2024-02-26T03:04:36;10.67;;;6.23;;
21426;SDS011;10874;49.452;11.050;2024-02-26T03:07:03;11.03;;;7.30;;
21426;SDS011;10874;49.452;11.050;2024-02-26T03:09:30;8.67;;;6.43;;
21426;SDS011;10874;49.452;11.050;2024-02-26T03:11:57;9.53;;;6.23;;
21426;SDS011;10874;49.452;11.050;2024-02-26T03:14:24;10.33;;;6.60;;
21426;SDS011;10874;49.452;11.050;2024-02-26T03:16:54;9.13;;;6.13;;
21426;SDS011;10874;49.452;11.050;2024-02-26T03:19:21;10.67;;;5.90;;
21426;SDS011;10874;49.452;11.050;2024-02-26T03:21:49;8.77;;;5.70;;
21426;SDS011;10874;49.452;11.050;2024-02-26T03:24:15;10.03;;;5.90;;
21426;SDS011;10874;49.452;11.050;2024-02-26T03:26:42;9.53;;;5.70;;
21426;SDS011;10874;49.452;11.050;2024-02-26T03:29:09;9.23;;;5.97;;
21426;SDS011;10874;49.452;11.050;2024-02-26T03:31:37;9.17;;;5.83;;
21426;SDS011;10874;49.452;11.050;2024-02-26T03:34:03;7.83;;;6.07;;
21426;SDS011;10874;49.452;11.050;2024-02-26T03:36:33;10.00;;;6.73;;
21426;SDS011;10874;49.452;11.050;2024-02-26T03:39:00;8.07;;;6.03;;
21426;SDS011;10874;49.452;11.050;2024-02-26T03:41:27;8.57;;;5.90;;
21426;SDS011;10874;49.452;11.050;2024-02-26T03:43:53;8.70;;;6.30;;
21426;SDS011;10874;49.452;11.050;2024-02-26T03:46:20;11.17;;;6.90;;
21426;SDS011;10874;49.452;11.050;2024-02-26T03:48:47;9.13;;;6.53;;
21426;SDS011;10874;49.452;11.050;2024-02-26T03:51:14;8.30;;;5.90;;
21426;SDS011;10874;49.452;11.050;2024-02-26T03:53:41;9.23;;;6.60;;
21426;SDS011;10874;49.452;11.050;2024-02-26T03:56:07;10.03;;;6.13;;
21426;SDS011;10874;49.452;11.050;2024-02-26T03:58:34;10.77;;;6.37;;
21426;SDS011;10874;49.452;11.050;2024-02-26T04:01:01;7.97;;;5.70;;
21426;SDS011;10874;49.452;11.050;2024-02-26T04:03:28;7.50;;;6.07;;
21426;SDS011;10874;49.452;11.050;2024-02-26T04:05:55;7.17;;;5.30;;
21426;SDS011;10874;49.452;11.050;2024-02-26T04:08:22;8.00;;;5.33;;
21426;SDS011;10874;49.452;11.050;2024-02-26T04:10:49;6.90;;;5.60;;
21426;SDS011;10874;49.452;11.050;2024-02-26T04:13:17;8.80;;;5.70;;
21426;SDS011;10874;49.452;11.050;2024-02-26T04:15:43;9.27;;;5.37;;
21426;SDS011;10874;49.452;11.050;2024-02-26T04:18:10;8.50;;;5.50;;
21426;SDS011;10874;49.452;11.050;2024-02-26T04:20:37;6.73;;;5.07;;
21426;SDS011;10874;49.452;11.050;2024-02-26T04:23:04;7.23;;;5.13;;
21426;SDS011;10874;49.452;11.050;2024-02-26T04:25:31;8.40;;;5.40;;
21426;SDS011;10874;49.452;11.050;2024-02-26T04:27:57;7.87;;;5.73;;
21426;SDS011;10874;49.452;11.050;2024-02-26T04:30:24;8.47;;;5.33;;
21426;SDS011;10874;49.452;11.050;2024-02-26T04:32:51;6.87;;;5.20;;
21426;SDS011;10874;49.452;11.050;2024-02-26T04:35:18;6.83;;;4.90;;
21426;SDS011;10874;49.452;11.050;2024-02-26T04:37:45;6.97;;;5.50;;
21426;SDS011;10874;49.452;11.050;2024-02-26T04:40:12;6.87;;;5.50;;
21426;SDS011;10874;49.452;11.050;2024-02-26T04:42:39;9.73;;;5.80;;
21426;SDS011;10874;49.452;11.050;2024-02-26T04:45:06;6.03;;;4.93;;
21426;SDS011;10874;49.452;11.050;2024-02-26T04:47:34;6.97;;;4.90;;
21426;SDS011;10874;49.452;11.050;2024-02-26T04:50:01;7.97;;;5.37;;
21426;SDS011;10874;49.452;11.050;2024-02-26T04:52:28;8.13;;;5.40;;
21426;SDS011;10874;49.452;11.050;2024-02-26T04:54:55;5.40;;;4.50;;
21426;SDS011;10874;49.452;11.050;2024-02-26T04:57:22;6.37;;;4.60;;
21426;SDS011;10874;49.452;11.050;2024-02-26T04:59:49;5.63;;;4.60;;
21426;SDS011;10874;49.452;11.050;2024-02-26T05:02:16;7.90;;;5.27;;
21426;SDS011;10874;49.452;11.050;2024-02-26T05:04:42;5.40;;;4.50;;
21426;SDS011;10874;49.452;11.050;2024-02-26T05:07:09;5.70;;;4.67;;
21426;SDS011;10874;49.452;11.050;2024-02-26T05:09:36;7.43;;;4.43;;
21426;SDS011;10874;49.452;11.050;2024-02-26T05:12:03;6.17;;;4.80;;
21426;SDS011;10874;49.452;11.050;2024-02-26T05:14:30;5.63;;;4.23;;
21426;SDS011;10874;49.452;11.050;2024-02-26T05:16:57;6.27;;;4.40;;
21426;SDS011;10874;49.452;11.050;2024-02-26T05:19:23;6.67;;;4.13;;
21426;SDS011;10874;49.452;11.050;2024-02-26T05:21:50;5.67;;;4.20;;
21426;SDS011;10874;49.452;11.050;2024-02-26T05:24:17;5.17;;;4.30;;
21426;SDS011;10874;49.452;11.050;2024-02-26T05:26:45;6.13;;;4.07;;
21426;SDS011;10874;49.452;11.050;2024-02-26T05:29:12;6.43;;;4.30;;
21426;SDS011;10874;49.452;11.050;2024-02-26T05:31:39;7.57;;;4.13;;
21426;SDS011;10874;49.452;11.050;2024-02-26T05:34:06;5.37;;;4.00;;
21426;SDS011;10874;49.452;11.050;2024-02-26T05:36:33;5.93;;;4.07;;
21426;SDS011;10874;49.452;11.050;2024-02-26T05:39:01;5.03;;;4.10;;
21426;SDS011;10874;49.452;11.050;2024-02-26T05:41:28;5.17;;;3.93;;
21426;SDS011;10874;49.452;11.050;2024-02-26T05:43:54;6.63;;;4.33;;
21426;SDS011;10874;49.452;11.050;2024-02-26T05:46:21;5.83;;;3.50;;
21426;SDS011;10874;49.452;11.050;2024-02-26T05:48:50;5.87;;;4.00;;
21426;SDS011;10874;49.452;11.050;2024-02-26T05:51:17;4.07;;;3.63;;
21426;SDS011;10874;49.452;11.050;2024-02-26T05:53:44;5.67;;;3.60;;
21426;SDS011;10874;49.452;11.050;2024-02-26T05:56:12;4.17;;;3.77;;
21426;SDS011;10874;49.452;11.050;2024-02-26T05:58:38;6.57;;;4.00;;
21426;SDS011;10874;49.452;11.050;2024-02-26T06:01:05;5.40;;;3.60;;
21426;SDS011;10874;49.452;11.050;2024-02-26T06:03:32;4.80;;;3.70;;
21426;SDS011;10874;49.452;11.050;2024-02-26T06:05:59;5.60;;;3.63;;
21426;SDS011;10874;49.452;11.050;2024-02-26T06:08:26;5.20;;;3.73;;
21426;SDS011;10874;49.452;11.050;2024-02-26T06:10:53;4.70;;;3.50;;
21426;SDS011;10874;49.452;11.050;2024-02-26T06:13:19;5.77;;;3.43;;
21426;SDS011;10874;49.452;11.050;2024-02-26T06:15:47;6.03;;;3.70;;
21426;SDS011;10874;49.452;11.050;2024-02-26T06:18:14;4.77;;;4.20;;
21426;SDS011;10874;49.452;11.050;2024-02-26T06:20:40;5.93;;;4.47;;
21426;SDS011;10874;49.452;11.050;2024-02-26T06:23:07;7.67;;;3.57;;
21426;SDS011;10874;49.452;11.050;2024-02-26T06:25:34;4.80;;;3.43;;
21426;SDS011;10874;49.452;11.050;2024-02-26T06:28:01;4.93;;;3.93;;
21426;SDS011;10874;49.452;11.050;2024-02-26T06:30:28;4.73;;;3.57;;
21426;SDS011;10874;49.452;11.050;2024-02-26T06:32:55;5.03;;;3.60;;
21426;SDS011;10874;49.452;11.050;2024-02-26T06:35:21;3.67;;;3.37;;
21426;SDS011;10874;49.452;11.050;2024-02-26T06:37:48;4.47;;;3.70;;
21426;SDS011;10874;49.452;11.050;2024-02-26T06:40:17;5.70;;;3.67;;
21426;SDS011;10874;49.452;11.050;2024-02-26T06:42:44;6.10;;;3.93;;
21426;SDS011;10874;49.452;11.050;2024-02-26T06:45:15;5.23;;;3.53;;
21426;SDS011;10874;49.452;11.050;2024-02-26T06:47:43;4.73;;;3.87;;
21426;SDS011;10874;49.452;11.050;2024-02-26T06:50:13;5.57;;;3.57;;
21426;SDS011;10874;49.452;11.050;2024-02-26T06:52:44;4.27;;;3.53;;
21426;SDS011;10874;49.452;11.050;2024-02-26T06:55:11;4.67;;;3.57;;
21426;SDS011;10874;49.452;11.050;2024-02-26T06:57:37;6.53;;;4.40;;
21426;SDS011;10874;49.452;11.050;2024-02-26T07:00:04;6.83;;;3.70;;
21426;SDS011;10874;49.452;11.050;2024-02-26T07:02:31;5.07;;;3.40;;
21426;SDS011;10874;49.452;11.050;2024-02-26T07:04:58;8.50;;;4.90;;
21426;SDS011;10874;49.452;11.050;2024-02-26T07:07:25;4.97;;;3.93;;
21426;SDS011;10874;49.452;11.050;2024-02-26T07:09:52;4.80;;;3.47;;
21426;SDS011;10874;49.452;11.050;2024-02-26T07:12:19;6.00;;;4.23;;
21426;SDS011;10874;49.452;11.050;2024-02-26T07:14:48;7.13;;;3.67;;
21426;SDS011;10874;49.452;11.050;2024-02-26T07:17:15;6.43;;;4.20;;
21426;SDS011;10874;49.452;11.050;2024-02-26T07:19:42;4.83;;;3.97;;
21426;SDS011;10874;49.452;11.050;2024-02-26T07:22:09;4.30;;;3.63;;
21426;SDS011;10874;49.452;11.050;2024-02-26T07:24:36;5.43;;;4.27;;
21426;SDS011;10874;49.452;11.050;2024-02-26T07:27:03;5.57;;;4.03;;
21426;SDS011;10874;49.452;11.050;2024-02-26T07:29:30;6.87;;;4.30;;
21426;SDS011;10874;49.452;11.050;2024-02-26T07:31:57;6.20;;;4.10;;
21426;SDS011;10874;49.452;11.050;2024-02-26T07:34:24;4.70;;;3.87;;
21426;SDS011;10874;49.452;11.050;2024-02-26T07:36:56;6.60;;;3.87;;
21426;SDS011;10874;49.452;11.050;2024-02-26T07:39:22;5.67;;;4.33;;
21426;SDS011;10874;49.452;11.050;2024-02-26T07:41:49;7.00;;;4.17;;
21426;SDS011;10874;49.452;11.050;2024-02-26T07:44:19;5.63;;;3.57;;
21426;SDS011;10874;49.452;11.050;2024-02-26T07:46:46;5.77;;;3.47;;
21426;SDS011;10874;49.452;11.050;2024-02-26T07:49:13;6.40;;;3.80;;
21426;SDS011;10874;49.452;11.050;2024-02-26T07:51:40;5.70;;;4.20;;
21426;SDS011;10874;49.452;11.050;2024-02-26T07:54:07;6.50;;;3.50;;
21426;SDS011;10874;49.452;11.050;2024-02-26T07:56:34;7.90;;;3.90;;
21426;SDS011;10874;49.452;11.050;2024-02-26T07:59:01;6.13;;;3.50;;
21426;SDS011;10874;49.452;11.050;2024-02-26T08:01:28;4.47;;;3.77;;
21426;SDS011;10874;49.452;11.050;2024-02-26T08:03:55;3.50;;;3.20;;
21426;SDS011;10874;49.452;11.050;2024-02-26T08:06:23;5.33;;;3.60;;
21426;SDS011;10874;49.452;11.050;2024-02-26T08:08:50;5.33;;;3.60;;
21426;SDS011;10874;49.452;11.050;2024-02-26T08:11:17;5.47;;;3.70;;
21426;SDS011;10874;49.452;11.050;2024-02-26T08:13:44;4.20;;;3.30;;
21426;SDS011;10874;49.452;11.050;2024-02-26T08:16:11;5.23;;;3.37;;
21426;SDS011;10874;49.452;11.050;2024-02-26T08:18:38;4.37;;;3.07;;
21426;SDS011;10874;49.452;11.050;2024-02-26T08:21:05;5.40;;;3.70;;
21426;SDS011;10874;49.452;11.050;2024-02-26T08:23:32;5.23;;;3.20;;
21426;SDS011;10874;49.452;11.050;2024-02-26T08:25:59;3.80;;;3.00;;
21426;SDS011;10874;49.452;11.050;2024-02-26T08:28:26;4.13;;;2.90;;
21426;SDS011;10874;49.452;11.050;2024-02-26T08:30:53;4.03;;;2.73;;
21426;SDS011;10874;49.452;11.050;2024-02-26T08:33:19;4.23;;;3.20;;
21426;SDS011;10874;49.452;11.050;2024-02-26T08:35:46;4.67;;;3.27;;
21426;SDS011;10874;49.452;11.050;2024-02-26T08:38:13;5.23;;;3.10;;
21426;SDS011;10874;49.452;11.050;2024-02-26T08:40:41;4.57;;;3.20;;
21426;SDS011;10874;49.452;11.050;2024-02-26T08:43:08;6.47;;;3.53;;
21426;SDS011;10874;49.452;11.050;2024-02-26T08:45:36;7.07;;;3.20;;
21426;SDS011;10874;49.452;11.050;2024-02-26T08:48:05;4.50;;;3.03;;
21426;SDS011;10874;49.452;11.050;2024-02-26T08:50:32;5.50;;;3.20;;
21426;SDS011;10874;49.452;11.050;2024-02-26T08:52:58;4.93;;;3.00;;
21426;SDS011;10874;49.452;11.050;2024-02-26T08:55:30;6.20;;;3.30;;
21426;SDS011;10874;49.452;11.050;2024-02-26T08:57:57;5.23;;;3.47;;
21426;SDS011;10874;49.452;11.050;2024-02-26T09:00:23;6.40;;;3.23;;
21426;SDS011;10874;49.452;11.050;2024-02-26T09:02:50;5.47;;;3.47;;
21426;SDS011;10874;49.452;11.050;2024-02-26T09:05:17;3.90;;;3.30;;
21426;SDS011;10874;49.452;11.050;2024-02-26T09:07:44;3.43;;;2.77;;
21426;SDS011;10874;49.452;11.050;2024-02-26T09:10:11;4.67;;;3.17;;
21426;SDS011;10874;49.452;11.050;2024-02-26T09:12:38;4.43;;;3.13;;
21426;SDS011;10874;49.452;11.050;2024-02-26T09:15:07;3.90;;;2.93;;
21426;SDS011;10874;49.452;11.050;2024-02-26T09:17:34;4.10;;;2.90;;
21426;SDS011;10874;49.452;11.050;2024-02-26T09:20:01;4.43;;;3.03;;
21426;SDS011;10874;49.452;11.050;2024-02-26T09:22:28;5.00;;;3.30;;
21426;SDS011;10874;49.452;11.050;2024-02-26T09:24:55;3.53;;;3.20;;
21426;SDS011;10874;49.452;11.050;2024-02-26T09:27:22;3.63;;;2.97;;
21426;SDS011;10874;49.452;11.050;2024-02-26T09:29:50;5.60;;;3.20;;
21426;SDS011;10874;49.452;11.050;2024-02-26T09:32:17;4.80;;;2.90;;
21426;SDS011;10874;49.452;11.050;2024-02-26T09:34:44;3.63;;;2.80;;
21426;SDS011;10874;49.452;11.050;2024-02-26T09:37:11;5.13;;;2.77;;
21426;SDS011;10874;49.452;11.050;2024-02-26T09:39:47;5.50;;;3.57;;
21426;SDS011;10874;49.452;11.050;2024-02-26T09:42:14;5.17;;;3.30;;
21426;SDS011;10874;49.452;11.050;2024-02-26T09:44:45;5.20;;;3.27;;
21426;SDS011;10874;49.452;11.050;2024-02-26T09:47:12;4.27;;;3.30;;
21426;SDS011;10874;49.452;11.050;2024-02-26T09:49:42;5.63;;;3.33;;
21426;SDS011;10874;49.452;11.050;2024-02-26T09:52:09;5.30;;;3.43;;
21426;SDS011;10874;49.452;11.050;2024-02-26T09:54:36;5.93;;;3.30;;
21426;SDS011;10874;49.452;11.050;2024-02-26T09:57:03;4.13;;;3.33;;
21426;SDS011;10874;49.452;11.050;2024-02-26T09:59:43;4.93;;;3.67;;
21426;SDS011;10874;49.452;11.050;2024-02-26T10:02:14;4.10;;;3.47;;
21426;SDS011;10874;49.452;11.050;2024-02-26T10:04:41;4.10;;;2.83;;
21426;SDS011;10874;49.452;11.050;2024-02-26T10:07:12;4.47;;;3.00;;
21426;SDS011;10874;49.452;11.050;2024-02-26T10:09:40;3.93;;;3.50;;
21426;SDS011;10874;49.452;11.050;2024-02-26T10:12:08;4.27;;;3.60;;
21426;SDS011;10874;49.452;11.050;2024-02-26T10:14:36;5.30;;;3.67;;
21426;SDS011;10874;49.452;11.050;2024-02-26T10:17:04;4.90;;;3.40;;
21426;SDS011;10874;49.452;11.050;2024-02-26T10:19:33;5.10;;;3.57;;
21426;SDS011;10874;49.452;11.050;2024-02-26T10:22:04;4.47;;;3.30;;
21426;SDS011;10874;49.452;11.050;2024-02-26T10:24:31;4.50;;;3.20;;
21426;SDS011;10874;49.452;11.050;2024-02-26T10:26:58;4.87;;;3.77;;
21426;SDS011;10874;49.452;11.050;2024-02-26T10:29:25;4.27;;;3.50;;
21426;SDS011;10874;49.452;11.050;2024-02-26T10:31:52;4.00;;;3.00;;
21426;SDS011;10874;49.452;11.050;2024-02-26T10:34:19;3.57;;;2.80;;
21426;SDS011;10874;49.452;11.050;2024-02-26T10:36:46;2.60;;;2.40;;
21426;SDS011;10874;49.452;11.050;2024-02-26T10:39:20;4.37;;;3.00;;
21426;SDS011;10874;49.452;11.050;2024-02-26T10:41:47;3.33;;;2.50;;
21426;SDS011;10874;49.452;11.050;2024-02-26T10:44:14;3.27;;;2.57;;
21426;SDS011;10874;49.452;11.050;2024-02-26T10:46:46;4.17;;;2.30;;
21426;SDS011;10874;49.452;11.050;2024-02-26T10:49:14;3.73;;;2.60;;
21426;SDS011;10874;49.452;11.050;2024-02-26T10:51:56;2.60;;;2.20;;
21426;SDS011;10874;49.452;11.050;2024-02-26T10:54:24;4.07;;;2.67;;
21426;SDS011;10874;49.452;11.050;2024-02-26T10:56:52;4.33;;;2.40;;
21426;SDS011;10874;49.452;11.050;2024-02-26T10:59:20;3.87;;;2.40;;
21426;SDS011;10874;49.452;11.050;2024-02-26T11:01:48;2.93;;;2.23;;
21426;SDS011;10874;49.452;11.050;2024-02-26T11:04:16;5.60;;;2.40;;
21426;SDS011;10874;49.452;11.050;2024-02-26T11:06:44;5.43;;;2.47;;
21426;SDS011;10874;49.452;11.050;2024-02-26T11:09:12;4.17;;;2.50;;
21426;SDS011;10874;49.452;11.050;2024-02-26T11:11:39;3.67;;;2.60;;
21426;SDS011;10874;49.452;11.050;2024-02-26T11:14:08;3.13;;;2.67;;
21426;SDS011;10874;49.452;11.050;2024-02-26T11:16:36;3.27;;;2.40;;
21426;SDS011;10874;49.452;11.050;2024-02-26T11:19:04;3.57;;;2.33;;
21426;SDS011;10874;49.452;11.050;2024-02-26T11:21:32;3.37;;;2.43;;
21426;SDS011;10874;49.452;11.050;2024-02-26T11:24:08;4.03;;;2.10;;
21426;SDS011;10874;49.452;11.050;2024-02-26T11:26:36;3.80;;;2.30;;
21426;SDS011;10874;49.452;11.050;2024-02-26T11:29:05;3.23;;;2.93;;
21426;SDS011;10874;49.452;11.050;2024-02-26T11:31:34;2.73;;;2.30;;
21426;SDS011;10874;49.452;11.050;2024-02-26T11:34:03;4.13;;;2.30;;
21426;SDS011;10874;49.452;11.050;2024-02-26T11:36:30;3.07;;;2.20;;
21426;SDS011;10874;49.452;11.050;2024-02-26T11:38:57;2.27;;;1.90;;
21426;SDS011;10874;49.452;11.050;2024-02-26T11:41:24;2.53;;;1.90;;
21426;SDS011;10874;49.452;11.050;2024-02-26T11:44:28;3.40;;;2.20;;
21426;SDS011;10874;49.452;11.050;2024-02-26T11:46:44;3.47;;;2.17;;
21426;SDS011;10874;49.452;11.050;2024-02-26T11:51:55;2.27;;;1.97;;
21426;SDS011;10874;49.452;11.050;2024-02-26T11:57:23;3.67;;;1.80;;
21426;SDS011;10874;49.452;11.050;2024-02-26T11:59:51;3.93;;;2.23;;
21426;SDS011;10874;49.452;11.050;2024-02-26T12:02:37;2.50;;;2.13;;
21426;SDS011;10874;49.452;11.050;2024-02-26T12:05:17;2.57;;;2.10;;
21426;SDS011;10874;49.452;11.050;2024-02-26T12:07:45;3.17;;;2.30;;
21426;SDS011;10874;49.452;11.050;2024-02-26T12:10:14;2.90;;;2.63;;
21426;SDS011;10874;49.452;11.050;2024-02-26T12:12:42;3.77;;;2.70;;
21426;SDS011;10874;49.452;11.050;2024-02-26T12:15:09;3.13;;;2.53;;
21426;SDS011;10874;49.452;11.050;2024-02-26T12:17:37;3.97;;;2.80;;
21426;SDS011;10874;49.452;11.050;2024-02-26T12:20:08;2.93;;;2.33;;
21426;SDS011;10874;49.452;11.050;2024-02-26T12:22:36;3.03;;;2.57;;
21426;SDS011;10874;49.452;11.050;2024-02-26T12:25:05;3.90;;;2.73;;
21426;SDS011;10874;49.452;11.050;2024-02-26T12:27:32;4.40;;;2.30;;
21426;SDS011;10874;49.452;11.050;2024-02-26T12:29:59;2.93;;;2.20;;
21426;SDS011;10874;49.452;11.050;2024-02-26T12:32:26;3.50;;;2.53;;
21426;SDS011;10874;49.452;11.050;2024-02-26T12:34:53;3.20;;;2.37;;
21426;SDS011;10874;49.452;11.050;2024-02-26T12:37:20;2.60;;;2.40;;
21426;SDS011;10874;49.452;11.050;2024-02-26T12:39:47;4.10;;;2.80;;
21426;SDS011;10874;49.452;11.050;2024-02-26T12:42:13;3.30;;;2.50;;
21426;SDS011;10874;49.452;11.050;2024-02-26T12:44:41;3.80;;;3.00;;
21426;SDS011;10874;49.452;11.050;2024-02-26T12:47:07;3.90;;;2.87;;
21426;SDS011;10874;49.452;11.050;2024-02-26T12:49:34;3.23;;;2.40;;
21426;SDS011;10874;49.452;11.050;2024-02-26T12:52:01;3.73;;;2.77;;
21426;SDS011;10874;49.452;11.050;2024-02-26T12:54:29;3.27;;;2.87;;
21426;SDS011;10874;49.452;11.050;2024-02-26T12:56:57;3.37;;;2.70;;
21426;SDS011;10874;49.452;11.050;2024-02-26T12:59:24;4.13;;;2.67;;
21426;SDS011;10874;49.452;11.050;2024-02-26T13:01:51;3.10;;;2.40;;
21426;SDS011;10874;49.452;11.050;2024-02-26T13:04:18;4.10;;;2.30;;
21426;SDS011;10874;49.452;11.050;2024-02-26T13:06:45;2.67;;;1.97;;
21426;SDS011;10874;49.452;11.050;2024-02-26T13:09:13;2.30;;;2.10;;
21426;SDS011;10874;49.452;11.050;2024-02-26T13:11:40;2.20;;;1.80;;
21426;SDS011;10874;49.452;11.050;2024-02-26T13:14:07;3.10;;;1.53;;
21426;SDS011;10874;49.452;11.050;2024-02-26T13:16:34;3.20;;;1.53;;
21426;SDS011;10874;49.452;11.050;2024-02-26T13:19:09;2.17;;;1.60;;
21426;SDS011;10874;49.452;11.050;2024-02-26T13:21:36;2.03;;;1.63;;
21426;SDS011;10874;49.452;11.050;2024-02-26T13:24:03;2.30;;;1.50;;
21426;SDS011;10874;49.452;11.050;2024-02-26T13:26:30;2.00;;;1.50;;
21426;SDS011;10874;49.452;11.050;2024-02-26T13:29:00;2.07;;;1.53;;
21426;SDS011;10874;49.452;11.050;2024-02-26T13:31:27;2.10;;;1.40;;
21426;SDS011;10874;49.452;11.050;2024-02-26T13:33:54;1.63;;;1.37;;
21426;SDS011;10874;49.452;11.050;2024-02-26T13:36:23;3.00;;;1.57;;
21426;SDS011;10874;49.452;11.050;2024-02-26T13:38:53;2.13;;;1.40;;
21426;SDS011;10874;49.452;11.050;2024-02-26T13:41:21;1.90;;;1.30;;
21426;SDS011;10874;49.452;11.050;2024-02-26T13:43:48;1.90;;;1.50;;
21426;SDS011;10874;49.452;11.050;2024-02-26T13:46:15;2.13;;;1.20;;
21426;SDS011;10874;49.452;11.050;2024-02-26T13:48:43;2.30;;;1.60;;
21426;SDS011;10874;49.452;11.050;2024-02-26T13:51:10;1.43;;;1.10;;
21426;SDS011;10874;49.452;11.050;2024-02-26T13:53:37;1.27;;;1.10;;
21426;SDS011;10874;49.452;11.050;2024-02-26T13:56:04;1.17;;;1.07;;
21426;SDS011;10874;49.452;11.050;2024-02-26T13:58:32;1.40;;;1.20;;
21426;SDS011;10874;49.452;11.050;2024-02-26T14:00:59;2.10;;;1.10;;
21426;SDS011;10874;49.452;11.050;2024-02-26T14:03:26;1.30;;;1.20;;
21426;SDS011;10874;49.452;11.050;2024-02-26T14:05:53;2.00;;;1.47;;
21426;SDS011;10874;49.452;11.050;2024-02-26T14:08:20;1.40;;;1.30;;
21426;SDS011;10874;49.452;11.050;2024-02-26T14:10:47;2.10;;;1.27;;
21426;SDS011;10874;49.452;11.050;2024-02-26T14:13:14;1.80;;;1.43;;
21426;SDS011;10874;49.452;11.050;2024-02-26T14:15:41;1.57;;;1.10;;
21426;SDS011;10874;49.452;11.050;2024-02-26T14:18:08;3.03;;;1.27;;
21426;SDS011;10874;49.452;11.050;2024-02-26T14:20:35;2.27;;;1.40;;
21426;SDS011;10874;49.452;11.050;2024-02-26T14:23:02;1.97;;;1.60;;
21426;SDS011;10874;49.452;11.050;2024-02-26T14:25:29;1.47;;;1.33;;
21426;SDS011;10874;49.452;11.050;2024-02-26T14:27:57;1.80;;;1.30;;
21426;SDS011;10874;49.452;11.050;2024-02-26T14:30:26;1.43;;;1.33;;
21426;SDS011;10874;49.452;11.050;2024-02-26T14:32:53;2.17;;;1.83;;
21426;SDS011;10874;49.452;11.050;2024-02-26T14:35:20;1.50;;;1.40;;
21426;SDS011;10874;49.452;11.050;2024-02-26T14:37:47;1.50;;;1.40;;
21426;SDS011;10874;49.452;11.050;2024-02-26T14:40:16;3.47;;;1.40;;